sensor_id;sensor_type;location;lat;lon;timestamp;temperature;humidity
5978;DHT22;3015;51.390;12.256;2023-03-14T00:02:16;11.30;1.00
5978;DHT22;3015;51.390;12.256;2023-03-14T00:04:42;11.40;1.00
5978;DHT22;3015;51.390;12.256;2023-03-14T00:07:09;11.40;99.90
5978;DHT22;3015;51.390;12.256;2023-03-14T00:09:35;11.40;99.90
5978;DHT22;3015;51.390;12.256;2023-03-14T00:12:01;11.30;99.90
5978;DHT22;3015;51.390;12.256;2023-03-14T00:14:29;11.30;99.90
5978;DHT22;3015;51.390;12.256;2023-03-14T00:16:54;11.30;99.90
5978;DHT22;3015;51.390;12.256;2023-03-14T00:19:20;11.30;1.00
5978;DHT22;3015;51.390;12.256;2023-03-14T00:21:46;11.20;1.00
5978;DHT22;3015;51.390;12.256;2023-03-14T00:24:12;11.20;1.00
5978;DHT22;3015;51.390;12.256;2023-03-14T00:26:38;11.10;1.00
5978;DHT22;3015;51.390;12.256;2023-03-14T00:29:03;11.20;99.90
5978;DHT22;3015;51.390;12.256;2023-03-14T00:31:29;11.10;1.00
5978;DHT22;3015;51.390;12.256;2023-03-14T00:33:55;11.10;1.00
5978;DHT22;3015;51.390;12.256;2023-03-14T00:36:21;11.10;1.00
5978;DHT22;3015;51.390;12.256;2023-03-14T00:38:49;11.10;1.00
5978;DHT22;3015;51.390;12.256;2023-03-14T00:41:18;11.20;1.00
5978;DHT22;3015;51.390;12.256;2023-03-14T00:43:44;11.20;1.00
5978;DHT22;3015;51.390;12.256;2023-03-14T00:46:10;11.10;1.00
5978;DHT22;3015;51.390;12.256;2023-03-14T00:48:36;11.20;99.90
5978;DHT22;3015;51.390;12.256;2023-03-14T00:51:03;11.10;1.00
5978;DHT22;3015;51.390;12.256;2023-03-14T00:53:29;11.20;1.00
5978;DHT22;3015;51.390;12.256;2023-03-14T00:55:55;11.30;99.90
5978;DHT22;3015;51.390;12.256;2023-03-14T00:58:21;11.30;33.50
5978;DHT22;3015;51.390;12.256;2023-03-14T01:00:46;11.30;1.00
5978;DHT22;3015;51.390;12.256;2023-03-14T01:03:13;11.40;1.00
5978;DHT22;3015;51.390;12.256;2023-03-14T01:05:39;11.40;1.00
5978;DHT22;3015;51.390;12.256;2023-03-14T01:08:05;11.40;99.90
5978;DHT22;3015;51.390;12.256;2023-03-14T01:10:32;11.40;99.90
5978;DHT22;3015;51.390;12.256;2023-03-14T01:12:58;11.40;99.90
5978;DHT22;3015;51.390;12.256;2023-03-14T01:15:24;11.40;99.90
5978;DHT22;3015;51.390;12.256;2023-03-14T01:17:49;11.40;99.90
5978;DHT22;3015;51.390;12.256;2023-03-14T01:20:16;11.30;99.90
5978;DHT22;3015;51.390;12.256;2023-03-14T01:22:43;11.30;99.90
5978;DHT22;3015;51.390;12.256;2023-03-14T01:25:12;11.30;99.90
5978;DHT22;3015;51.390;12.256;2023-03-14T01:27:38;11.30;99.90
5978;DHT22;3015;51.390;12.256;2023-03-14T01:30:04;11.30;40.80
5978;DHT22;3015;51.390;12.256;2023-03-14T01:32:30;11.40;1.00
5978;DHT22;3015;51.390;12.256;2023-03-14T01:34:56;11.40;24.90
5978;DHT22;3015;51.390;12.256;2023-03-14T01:37:21;11.40;1.00
5978;DHT22;3015;51.390;12.256;2023-03-14T01:39:47;11.40;1.00
5978;DHT22;3015;51.390;12.256;2023-03-14T01:42:14;11.40;1.00
5978;DHT22;3015;51.390;12.256;2023-03-14T01:47:40;11.40;1.00
5978;DHT22;3015;51.390;12.256;2023-03-14T01:50:10;11.40;1.00
5978;DHT22;3015;51.390;12.256;2023-03-14T01:52:41;11.30;1.00
5978;DHT22;3015;51.390;12.256;2023-03-14T01:55:12;11.40;1.00
5978;DHT22;3015;51.390;12.256;2023-03-14T01:57:56;11.40;1.00
5978;DHT22;3015;51.390;12.256;2023-03-14T02:00:23;11.30;1.00
5978;DHT22;3015;51.390;12.256;2023-03-14T02:03:05;11.30;99.90
5978;DHT22;3015;51.390;12.256;2023-03-14T02:05:35;11.20;1.00
5978;DHT22;3015;51.390;12.256;2023-03-14T02:08:05;11.20;1.00
5978;DHT22;3015;51.390;12.256;2023-03-14T02:10:34;11.20;1.00
5978;DHT22;3015;51.390;12.256;2023-03-14T02:13:03;11.30;1.00
5978;DHT22;3015;51.390;12.256;2023-03-14T02:15:30;11.20;1.00
5978;DHT22;3015;51.390;12.256;2023-03-14T02:17:57;11.10;1.00
5978;DHT22;3015;51.390;12.256;2023-03-14T02:22:48;11.00;99.90
5978;DHT22;3015;51.390;12.256;2023-03-14T02:25:32;10.90;99.90
5978;DHT22;3015;51.390;12.256;2023-03-14T02:28:01;10.90;99.90
5978;DHT22;3015;51.390;12.256;2023-03-14T02:30:29;10.80;99.90
5978;DHT22;3015;51.390;12.256;2023-03-14T02:33:05;10.80;99.90
5978;DHT22;3015;51.390;12.256;2023-03-14T02:40:46;10.80;99.90
5978;DHT22;3015;51.390;12.256;2023-03-14T02:43:13;10.80;31.20
5978;DHT22;3015;51.390;12.256;2023-03-14T02:45:46;10.80;1.00
5978;DHT22;3015;51.390;12.256;2023-03-14T02:48:21;10.80;1.00
5978;DHT22;3015;51.390;12.256;2023-03-14T02:50:52;10.80;99.90
5978;DHT22;3015;51.390;12.256;2023-03-14T02:53:23;10.70;1.00
5978;DHT22;3015;51.390;12.256;2023-03-14T02:55:50;10.60;1.00
5978;DHT22;3015;51.390;12.256;2023-03-14T02:58:16;10.50;1.00
5978;DHT22;3015;51.390;12.256;2023-03-14T03:00:42;10.60;99.90
5978;DHT22;3015;51.390;12.256;2023-03-14T03:03:08;10.70;99.90
5978;DHT22;3015;51.390;12.256;2023-03-14T03:05:34;10.70;1.00
5978;DHT22;3015;51.390;12.256;2023-03-14T03:08:00;10.70;1.00
5978;DHT22;3015;51.390;12.256;2023-03-14T03:10:27;10.70;1.00
5978;DHT22;3015;51.390;12.256;2023-03-14T03:12:53;10.90;1.00
5978;DHT22;3015;51.390;12.256;2023-03-14T03:15:18;11.10;99.90
5978;DHT22;3015;51.390;12.256;2023-03-14T03:17:44;11.30;1.00
5978;DHT22;3015;51.390;12.256;2023-03-14T03:20:10;11.20;96.80
5978;DHT22;3015;51.390;12.256;2023-03-14T03:22:36;11.30;1.00
5978;DHT22;3015;51.390;12.256;2023-03-14T03:25:03;11.40;1.00
5978;DHT22;3015;51.390;12.256;2023-03-14T03:27:30;11.40;1.00
5978;DHT22;3015;51.390;12.256;2023-03-14T03:29:57;11.30;1.00
5978;DHT22;3015;51.390;12.256;2023-03-14T03:32:22;11.40;1.00
5978;DHT22;3015;51.390;12.256;2023-03-14T03:34:48;11.40;99.90
5978;DHT22;3015;51.390;12.256;2023-03-14T03:37:14;11.40;99.90
5978;DHT22;3015;51.390;12.256;2023-03-14T03:39:39;11.40;99.90
5978;DHT22;3015;51.390;12.256;2023-03-14T03:42:05;11.40;99.90
5978;DHT22;3015;51.390;12.256;2023-03-14T03:44:31;11.40;99.90
5978;DHT22;3015;51.390;12.256;2023-03-14T03:46:56;11.50;99.90
5978;DHT22;3015;51.390;12.256;2023-03-14T03:49:22;11.40;99.90
5978;DHT22;3015;51.390;12.256;2023-03-14T03:51:47;11.40;99.90
5978;DHT22;3015;51.390;12.256;2023-03-14T03:54:13;11.40;99.90
5978;DHT22;3015;51.390;12.256;2023-03-14T03:56:39;11.40;99.90
5978;DHT22;3015;51.390;12.256;2023-03-14T03:59:04;11.30;99.90
5978;DHT22;3015;51.390;12.256;2023-03-14T04:01:30;11.30;99.90
5978;DHT22;3015;51.390;12.256;2023-03-14T04:03:55;11.40;99.90
5978;DHT22;3015;51.390;12.256;2023-03-14T04:06:21;11.40;99.90
5978;DHT22;3015;51.390;12.256;2023-03-14T04:08:47;11.30;99.90
5978;DHT22;3015;51.390;12.256;2023-03-14T04:11:12;11.30;99.90
5978;DHT22;3015;51.390;12.256;2023-03-14T04:13:38;11.40;99.90
5978;DHT22;3015;51.390;12.256;2023-03-14T04:16:08;11.40;99.90
5978;DHT22;3015;51.390;12.256;2023-03-14T04:18:35;11.20;99.90
5978;DHT22;3015;51.390;12.256;2023-03-14T04:21:01;11.30;99.90
5978;DHT22;3015;51.390;12.256;2023-03-14T04:23:26;11.30;99.90
5978;DHT22;3015;51.390;12.256;2023-03-14T04:25:53;11.30;99.90
5978;DHT22;3015;51.390;12.256;2023-03-14T04:28:19;11.40;99.90
5978;DHT22;3015;51.390;12.256;2023-03-14T04:30:44;11.40;99.90
5978;DHT22;3015;51.390;12.256;2023-03-14T04:33:10;11.40;99.90
5978;DHT22;3015;51.390;12.256;2023-03-14T04:35:38;11.40;99.90
5978;DHT22;3015;51.390;12.256;2023-03-14T04:38:03;11.40;99.90
5978;DHT22;3015;51.390;12.256;2023-03-14T04:40:29;11.50;99.90
5978;DHT22;3015;51.390;12.256;2023-03-14T04:42:55;11.60;79.80
5978;DHT22;3015;51.390;12.256;2023-03-14T04:45:20;11.60;67.70
5978;DHT22;3015;51.390;12.256;2023-03-14T04:47:46;11.50;99.90
5978;DHT22;3015;51.390;12.256;2023-03-14T04:50:11;11.60;89.90
5978;DHT22;3015;51.390;12.256;2023-03-14T04:52:37;11.60;49.40
5978;DHT22;3015;51.390;12.256;2023-03-14T04:55:03;11.60;82.50
5978;DHT22;3015;51.390;12.256;2023-03-14T04:57:29;11.50;86.80
5978;DHT22;3015;51.390;12.256;2023-03-14T04:59:54;11.40;99.90
5978;DHT22;3015;51.390;12.256;2023-03-14T05:02:20;11.30;99.90
5978;DHT22;3015;51.390;12.256;2023-03-14T05:04:45;11.30;99.90
5978;DHT22;3015;51.390;12.256;2023-03-14T05:07:11;11.30;99.90
5978;DHT22;3015;51.390;12.256;2023-03-14T05:09:37;11.20;99.90
5978;DHT22;3015;51.390;12.256;2023-03-14T05:12:02;11.10;99.90
5978;DHT22;3015;51.390;12.256;2023-03-14T05:14:28;10.90;99.90
5978;DHT22;3015;51.390;12.256;2023-03-14T05:16:53;10.90;1.00
5978;DHT22;3015;51.390;12.256;2023-03-14T05:19:19;10.90;99.90
5978;DHT22;3015;51.390;12.256;2023-03-14T05:21:45;10.90;99.90
5978;DHT22;3015;51.390;12.256;2023-03-14T05:24:10;10.80;1.00
5978;DHT22;3015;51.390;12.256;2023-03-14T05:26:36;10.80;1.00
5978;DHT22;3015;51.390;12.256;2023-03-14T05:29:01;10.80;1.00
5978;DHT22;3015;51.390;12.256;2023-03-14T05:31:27;10.70;1.00
5978;DHT22;3015;51.390;12.256;2023-03-14T05:33:53;10.60;1.00
5978;DHT22;3015;51.390;12.256;2023-03-14T05:36:18;10.60;1.00
5978;DHT22;3015;51.390;12.256;2023-03-14T05:38:44;10.80;1.00
5978;DHT22;3015;51.390;12.256;2023-03-14T05:41:09;10.70;1.00
5978;DHT22;3015;51.390;12.256;2023-03-14T05:43:35;10.60;1.00
5978;DHT22;3015;51.390;12.256;2023-03-14T05:46:01;10.60;1.00
5978;DHT22;3015;51.390;12.256;2023-03-14T05:48:26;10.40;3.80
5978;DHT22;3015;51.390;12.256;2023-03-14T05:50:56;10.30;99.90
5978;DHT22;3015;51.390;12.256;2023-03-14T05:53:22;10.20;99.90
5978;DHT22;3015;51.390;12.256;2023-03-14T05:55:50;10.10;1.00
5978;DHT22;3015;51.390;12.256;2023-03-14T05:58:16;10.20;24.00
5978;DHT22;3015;51.390;12.256;2023-03-14T06:00:41;10.20;1.00
5978;DHT22;3015;51.390;12.256;2023-03-14T06:03:07;10.40;1.00
5978;DHT22;3015;51.390;12.256;2023-03-14T06:05:32;10.50;99.90
5978;DHT22;3015;51.390;12.256;2023-03-14T06:07:58;10.50;99.90
5978;DHT22;3015;51.390;12.256;2023-03-14T06:10:23;10.60;1.00
5978;DHT22;3015;51.390;12.256;2023-03-14T06:12:49;10.80;1.00
5978;DHT22;3015;51.390;12.256;2023-03-14T06:15:15;10.90;1.00
5978;DHT22;3015;51.390;12.256;2023-03-14T06:17:40;11.00;99.90
5978;DHT22;3015;51.390;12.256;2023-03-14T06:20:06;11.10;99.90
5978;DHT22;3015;51.390;12.256;2023-03-14T06:22:32;11.00;99.90
5978;DHT22;3015;51.390;12.256;2023-03-14T06:24:58;11.10;99.90
5978;DHT22;3015;51.390;12.256;2023-03-14T06:27:23;11.00;99.90
5978;DHT22;3015;51.390;12.256;2023-03-14T06:29:49;11.00;99.90
5978;DHT22;3015;51.390;12.256;2023-03-14T06:32:14;11.10;99.90
5978;DHT22;3015;51.390;12.256;2023-03-14T06:34:40;11.00;99.90
5978;DHT22;3015;51.390;12.256;2023-03-14T06:37:06;11.00;99.90
5978;DHT22;3015;51.390;12.256;2023-03-14T06:39:31;11.10;99.90
5978;DHT22;3015;51.390;12.256;2023-03-14T06:41:57;11.20;99.90
5978;DHT22;3015;51.390;12.256;2023-03-14T06:44:23;11.10;99.90
5978;DHT22;3015;51.390;12.256;2023-03-14T06:46:48;11.20;99.90
5978;DHT22;3015;51.390;12.256;2023-03-14T06:49:14;11.20;99.90
5978;DHT22;3015;51.390;12.256;2023-03-14T06:51:39;11.20;99.90
5978;DHT22;3015;51.390;12.256;2023-03-14T06:54:05;11.30;99.90
5978;DHT22;3015;51.390;12.256;2023-03-14T06:56:30;11.40;99.90
5978;DHT22;3015;51.390;12.256;2023-03-14T06:58:56;11.40;99.90
5978;DHT22;3015;51.390;12.256;2023-03-14T07:01:27;11.50;99.90
5978;DHT22;3015;51.390;12.256;2023-03-14T07:03:54;11.50;99.90
5978;DHT22;3015;51.390;12.256;2023-03-14T07:06:19;11.50;87.10
5978;DHT22;3015;51.390;12.256;2023-03-14T07:08:45;11.60;44.50
5978;DHT22;3015;51.390;12.256;2023-03-14T07:11:11;11.50;86.10
5978;DHT22;3015;51.390;12.256;2023-03-14T07:13:38;11.60;70.20
5978;DHT22;3015;51.390;12.256;2023-03-14T07:16:04;11.70;1.00
5978;DHT22;3015;51.390;12.256;2023-03-14T07:18:30;11.80;1.00
5978;DHT22;3015;51.390;12.256;2023-03-14T07:20:56;11.80;1.00
5978;DHT22;3015;51.390;12.256;2023-03-14T07:23:21;11.80;1.00
5978;DHT22;3015;51.390;12.256;2023-03-14T07:25:47;11.80;1.00
5978;DHT22;3015;51.390;12.256;2023-03-14T07:28:12;11.90;1.00
5978;DHT22;3015;51.390;12.256;2023-03-14T07:30:38;11.90;1.00
5978;DHT22;3015;51.390;12.256;2023-03-14T07:33:04;12.00;1.00
5978;DHT22;3015;51.390;12.256;2023-03-14T07:35:29;12.20;1.00
5978;DHT22;3015;51.390;12.256;2023-03-14T07:37:55;12.30;1.00
5978;DHT22;3015;51.390;12.256;2023-03-14T07:40:21;12.40;1.00
5978;DHT22;3015;51.390;12.256;2023-03-14T07:42:46;12.50;1.00
5978;DHT22;3015;51.390;12.256;2023-03-14T07:45:12;12.60;1.00
5978;DHT22;3015;51.390;12.256;2023-03-14T07:47:37;12.60;1.00
5978;DHT22;3015;51.390;12.256;2023-03-14T07:50:05;12.60;1.00
5978;DHT22;3015;51.390;12.256;2023-03-14T07:52:30;12.70;1.00
5978;DHT22;3015;51.390;12.256;2023-03-14T07:54:56;12.70;1.00
5978;DHT22;3015;51.390;12.256;2023-03-14T07:57:22;12.80;1.00
5978;DHT22;3015;51.390;12.256;2023-03-14T07:59:49;13.70;1.00
5978;DHT22;3015;51.390;12.256;2023-03-14T08:02:15;14.20;99.90
5978;DHT22;3015;51.390;12.256;2023-03-14T08:04:41;14.10;99.90
5978;DHT22;3015;51.390;12.256;2023-03-14T08:07:07;13.60;99.90
5978;DHT22;3015;51.390;12.256;2023-03-14T08:09:32;13.40;99.90
5978;DHT22;3015;51.390;12.256;2023-03-14T08:11:58;13.20;99.90
5978;DHT22;3015;51.390;12.256;2023-03-14T08:14:24;13.10;99.90
5978;DHT22;3015;51.390;12.256;2023-03-14T08:16:50;13.20;99.90
5978;DHT22;3015;51.390;12.256;2023-03-14T08:19:16;13.60;99.90
5978;DHT22;3015;51.390;12.256;2023-03-14T08:21:41;13.80;99.90
5978;DHT22;3015;51.390;12.256;2023-03-14T08:24:07;13.80;99.90
5978;DHT22;3015;51.390;12.256;2023-03-14T08:26:33;13.80;99.90
5978;DHT22;3015;51.390;12.256;2023-03-14T08:28:58;13.90;99.90
5978;DHT22;3015;51.390;12.256;2023-03-14T08:31:24;14.00;99.90
5978;DHT22;3015;51.390;12.256;2023-03-14T08:33:49;14.00;99.90
5978;DHT22;3015;51.390;12.256;2023-03-14T08:36:17;13.90;99.90
5978;DHT22;3015;51.390;12.256;2023-03-14T08:38:44;13.90;99.90
5978;DHT22;3015;51.390;12.256;2023-03-14T08:41:10;14.00;99.90
5978;DHT22;3015;51.390;12.256;2023-03-14T08:43:36;14.00;99.90
5978;DHT22;3015;51.390;12.256;2023-03-14T08:46:02;14.20;99.90
5978;DHT22;3015;51.390;12.256;2023-03-14T08:48:28;14.30;99.90
5978;DHT22;3015;51.390;12.256;2023-03-14T08:51:05;14.20;99.90
5978;DHT22;3015;51.390;12.256;2023-03-14T08:53:31;14.10;99.90
5978;DHT22;3015;51.390;12.256;2023-03-14T08:55:57;13.90;99.90
5978;DHT22;3015;51.390;12.256;2023-03-14T08:58:23;13.80;99.90
5978;DHT22;3015;51.390;12.256;2023-03-14T09:00:49;13.70;99.90
5978;DHT22;3015;51.390;12.256;2023-03-14T09:03:14;13.70;99.90
5978;DHT22;3015;51.390;12.256;2023-03-14T09:05:40;13.60;99.90
5978;DHT22;3015;51.390;12.256;2023-03-14T09:08:06;13.70;99.90
5978;DHT22;3015;51.390;12.256;2023-03-14T09:10:31;13.80;99.90
5978;DHT22;3015;51.390;12.256;2023-03-14T09:12:57;13.90;99.90
5978;DHT22;3015;51.390;12.256;2023-03-14T09:15:24;13.80;99.90
5978;DHT22;3015;51.390;12.256;2023-03-14T09:17:49;13.70;99.90
5978;DHT22;3015;51.390;12.256;2023-03-14T09:20:16;13.50;99.90
5978;DHT22;3015;51.390;12.256;2023-03-14T09:22:41;13.50;99.90
5978;DHT22;3015;51.390;12.256;2023-03-14T09:25:07;13.40;99.90
5978;DHT22;3015;51.390;12.256;2023-03-14T09:27:33;13.40;99.90
5978;DHT22;3015;51.390;12.256;2023-03-14T09:29:59;13.30;99.90
5978;DHT22;3015;51.390;12.256;2023-03-14T09:32:24;13.40;99.90
5978;DHT22;3015;51.390;12.256;2023-03-14T09:34:50;13.60;99.90
5978;DHT22;3015;51.390;12.256;2023-03-14T09:37:15;13.70;99.90
5978;DHT22;3015;51.390;12.256;2023-03-14T09:39:42;13.70;99.90
5978;DHT22;3015;51.390;12.256;2023-03-14T09:42:13;13.90;99.90
5978;DHT22;3015;51.390;12.256;2023-03-14T09:44:53;13.90;99.90
5978;DHT22;3015;51.390;12.256;2023-03-14T09:47:19;14.00;99.90
5978;DHT22;3015;51.390;12.256;2023-03-14T09:49:45;13.90;99.90
5978;DHT22;3015;51.390;12.256;2023-03-14T09:54:46;14.10;99.90
5978;DHT22;3015;51.390;12.256;2023-03-14T09:57:24;14.10;99.90
5978;DHT22;3015;51.390;12.256;2023-03-14T09:59:53;14.20;99.90
5978;DHT22;3015;51.390;12.256;2023-03-14T10:02:22;14.30;99.90
5978;DHT22;3015;51.390;12.256;2023-03-14T10:04:50;14.20;99.90
5978;DHT22;3015;51.390;12.256;2023-03-14T10:07:21;14.00;99.90
5978;DHT22;3015;51.390;12.256;2023-03-14T10:09:50;13.90;99.90
5978;DHT22;3015;51.390;12.256;2023-03-14T10:12:16;13.90;99.90
5978;DHT22;3015;51.390;12.256;2023-03-14T10:14:51;13.70;99.90
5978;DHT22;3015;51.390;12.256;2023-03-14T10:17:18;13.70;99.90
5978;DHT22;3015;51.390;12.256;2023-03-14T10:19:55;13.60;99.90
5978;DHT22;3015;51.390;12.256;2023-03-14T10:22:23;13.60;99.90
5978;DHT22;3015;51.390;12.256;2023-03-14T10:25:00;13.60;99.90
5978;DHT22;3015;51.390;12.256;2023-03-14T10:27:32;13.60;99.90
5978;DHT22;3015;51.390;12.256;2023-03-14T10:30:00;13.60;99.90
5978;DHT22;3015;51.390;12.256;2023-03-14T10:32:38;13.90;99.90
5978;DHT22;3015;51.390;12.256;2023-03-14T10:35:20;14.10;99.90
5978;DHT22;3015;51.390;12.256;2023-03-14T10:37:56;14.10;99.90
5978;DHT22;3015;51.390;12.256;2023-03-14T10:40:29;14.10;99.90
5978;DHT22;3015;51.390;12.256;2023-03-14T10:42:58;14.30;99.90
5978;DHT22;3015;51.390;12.256;2023-03-14T10:45:37;14.40;99.90
5978;DHT22;3015;51.390;12.256;2023-03-14T10:48:30;14.30;99.90
5978;DHT22;3015;51.390;12.256;2023-03-14T10:50:58;14.10;99.90
5978;DHT22;3015;51.390;12.256;2023-03-14T10:53:27;14.10;99.90
5978;DHT22;3015;51.390;12.256;2023-03-14T10:56:02;14.00;99.90
5978;DHT22;3015;51.390;12.256;2023-03-14T10:58:32;14.10;99.90
5978;DHT22;3015;51.390;12.256;2023-03-14T11:09:36;14.20;99.90
5978;DHT22;3015;51.390;12.256;2023-03-14T11:12:23;14.10;99.90
5978;DHT22;3015;51.390;12.256;2023-03-14T11:15:04;14.00;99.90
5978;DHT22;3015;51.390;12.256;2023-03-14T11:17:38;14.10;99.90
5978;DHT22;3015;51.390;12.256;2023-03-14T11:23:06;14.30;99.90
5978;DHT22;3015;51.390;12.256;2023-03-14T11:26:14;14.30;99.90
5978;DHT22;3015;51.390;12.256;2023-03-14T11:28:48;14.20;99.90
5978;DHT22;3015;51.390;12.256;2023-03-14T11:31:27;14.00;99.90
5978;DHT22;3015;51.390;12.256;2023-03-14T11:34:01;13.80;99.90
5978;DHT22;3015;51.390;12.256;2023-03-14T11:36:32;13.60;99.90
5978;DHT22;3015;51.390;12.256;2023-03-14T11:38:59;13.60;99.90
5978;DHT22;3015;51.390;12.256;2023-03-14T11:41:40;13.80;99.90
5978;DHT22;3015;51.390;12.256;2023-03-14T11:44:37;14.20;99.90
5978;DHT22;3015;51.390;12.256;2023-03-14T11:47:08;14.20;99.90
5978;DHT22;3015;51.390;12.256;2023-03-14T11:49:53;14.10;99.90
5978;DHT22;3015;51.390;12.256;2023-03-14T11:52:30;14.00;99.90
5978;DHT22;3015;51.390;12.256;2023-03-14T11:55:06;13.70;99.90
5978;DHT22;3015;51.390;12.256;2023-03-14T11:57:34;13.60;99.90
5978;DHT22;3015;51.390;12.256;2023-03-14T12:00:21;13.60;99.90
5978;DHT22;3015;51.390;12.256;2023-03-14T12:11:59;13.50;99.90
5978;DHT22;3015;51.390;12.256;2023-03-14T12:16:54;13.20;1.00
5978;DHT22;3015;51.390;12.256;2023-03-14T12:21:51;12.50;99.90
5978;DHT22;3015;51.390;12.256;2023-03-14T12:24:22;12.30;99.90
5978;DHT22;3015;51.390;12.256;2023-03-14T12:26:54;12.20;1.00
5978;DHT22;3015;51.390;12.256;2023-03-14T12:29:20;12.30;99.90
5978;DHT22;3015;51.390;12.256;2023-03-14T12:31:48;12.50;1.00
5978;DHT22;3015;51.390;12.256;2023-03-14T12:42:02;13.90;1.00
5978;DHT22;3015;51.390;12.256;2023-03-14T12:47:13;14.00;1.00
5978;DHT22;3015;51.390;12.256;2023-03-14T12:49:40;13.90;1.00
5978;DHT22;3015;51.390;12.256;2023-03-14T12:52:14;13.80;1.00
5978;DHT22;3015;51.390;12.256;2023-03-14T12:54:47;13.80;1.00
5978;DHT22;3015;51.390;12.256;2023-03-14T13:00:32;13.70;1.00
5978;DHT22;3015;51.390;12.256;2023-03-14T13:03:15;13.90;1.00
5978;DHT22;3015;51.390;12.256;2023-03-14T13:05:55;13.90;99.90
5978;DHT22;3015;51.390;12.256;2023-03-14T13:08:43;13.90;99.90
5978;DHT22;3015;51.390;12.256;2023-03-14T13:11:13;13.90;99.90
5978;DHT22;3015;51.390;12.256;2023-03-14T13:13:56;14.00;99.90
5978;DHT22;3015;51.390;12.256;2023-03-14T13:16:22;14.20;99.90
5978;DHT22;3015;51.390;12.256;2023-03-14T13:18:49;14.50;99.90
5978;DHT22;3015;51.390;12.256;2023-03-14T13:21:21;14.60;99.90
5978;DHT22;3015;51.390;12.256;2023-03-14T13:24:01;14.80;99.90
5978;DHT22;3015;51.390;12.256;2023-03-14T13:26:39;15.60;99.90
5978;DHT22;3015;51.390;12.256;2023-03-14T13:31:44;16.00;99.90
5978;DHT22;3015;51.390;12.256;2023-03-14T13:34:11;15.90;99.90
5978;DHT22;3015;51.390;12.256;2023-03-14T13:36:37;16.50;99.90
5978;DHT22;3015;51.390;12.256;2023-03-14T13:39:06;16.70;99.90
5978;DHT22;3015;51.390;12.256;2023-03-14T13:41:37;17.10;99.90
5978;DHT22;3015;51.390;12.256;2023-03-14T13:44:08;17.40;99.90
5978;DHT22;3015;51.390;12.256;2023-03-14T13:46:38;17.20;99.90
5978;DHT22;3015;51.390;12.256;2023-03-14T13:49:06;17.00;99.90
5978;DHT22;3015;51.390;12.256;2023-03-14T13:51:33;16.90;99.90
5978;DHT22;3015;51.390;12.256;2023-03-14T13:53:59;16.80;99.90
5978;DHT22;3015;51.390;12.256;2023-03-14T13:56:27;17.10;99.90
5978;DHT22;3015;51.390;12.256;2023-03-14T13:58:53;17.40;99.90
5978;DHT22;3015;51.390;12.256;2023-03-14T14:03:50;17.80;99.90
5978;DHT22;3015;51.390;12.256;2023-03-14T14:06:35;17.80;99.90
5978;DHT22;3015;51.390;12.256;2023-03-14T14:09:13;17.60;99.90
5978;DHT22;3015;51.390;12.256;2023-03-14T14:14:21;16.70;99.90
5978;DHT22;3015;51.390;12.256;2023-03-14T14:16:51;16.40;99.90
5978;DHT22;3015;51.390;12.256;2023-03-14T14:19:17;16.10;99.90
5978;DHT22;3015;51.390;12.256;2023-03-14T14:21:44;15.80;99.90
5978;DHT22;3015;51.390;12.256;2023-03-14T14:24:14;15.60;99.90
5978;DHT22;3015;51.390;12.256;2023-03-14T14:27:07;15.50;99.90
5978;DHT22;3015;51.390;12.256;2023-03-14T14:29:32;15.40;99.90
5978;DHT22;3015;51.390;12.256;2023-03-14T14:34:29;15.30;99.90
5978;DHT22;3015;51.390;12.256;2023-03-14T14:37:03;15.10;99.90
5978;DHT22;3015;51.390;12.256;2023-03-14T14:39:30;14.90;99.90
5978;DHT22;3015;51.390;12.256;2023-03-14T14:41:57;14.80;99.90
5978;DHT22;3015;51.390;12.256;2023-03-14T14:44:31;14.60;99.90
5978;DHT22;3015;51.390;12.256;2023-03-14T14:46:58;14.50;99.90
5978;DHT22;3015;51.390;12.256;2023-03-14T14:49:29;14.30;99.90
5978;DHT22;3015;51.390;12.256;2023-03-14T14:52:03;14.00;99.90
5978;DHT22;3015;51.390;12.256;2023-03-14T14:54:38;13.60;99.90
5978;DHT22;3015;51.390;12.256;2023-03-14T14:57:18;13.30;1.00
5978;DHT22;3015;51.390;12.256;2023-03-14T14:59:44;13.10;1.00
5978;DHT22;3015;51.390;12.256;2023-03-14T15:05:00;13.00;1.00
5978;DHT22;3015;51.390;12.256;2023-03-14T15:09:51;12.40;1.00
5978;DHT22;3015;51.390;12.256;2023-03-14T15:12:17;9.10;1.00
5978;DHT22;3015;51.390;12.256;2023-03-14T15:14:42;8.30;1.00
5978;DHT22;3015;51.390;12.256;2023-03-14T15:17:11;7.80;99.90
5978;DHT22;3015;51.390;12.256;2023-03-14T15:19:38;7.40;1.00
5978;DHT22;3015;51.390;12.256;2023-03-14T15:22:08;7.20;1.00
5978;DHT22;3015;51.390;12.256;2023-03-14T15:24:36;7.00;17.20
5978;DHT22;3015;51.390;12.256;2023-03-14T15:27:02;6.90;99.90
5978;DHT22;3015;51.390;12.256;2023-03-14T15:29:28;6.80;1.00
5978;DHT22;3015;51.390;12.256;2023-03-14T15:31:53;6.70;99.90
5978;DHT22;3015;51.390;12.256;2023-03-14T15:34:22;6.60;99.90
5978;DHT22;3015;51.390;12.256;2023-03-14T15:36:47;6.40;1.00
5978;DHT22;3015;51.390;12.256;2023-03-14T15:39:13;6.20;99.90
5978;DHT22;3015;51.390;12.256;2023-03-14T15:41:39;6.00;1.00
5978;DHT22;3015;51.390;12.256;2023-03-14T15:44:05;5.90;1.00
5978;DHT22;3015;51.390;12.256;2023-03-14T15:46:30;5.80;1.50
5978;DHT22;3015;51.390;12.256;2023-03-14T15:48:56;5.70;1.00
5978;DHT22;3015;51.390;12.256;2023-03-14T15:51:21;5.50;1.00
5978;DHT22;3015;51.390;12.256;2023-03-14T15:53:47;5.50;1.00
5978;DHT22;3015;51.390;12.256;2023-03-14T15:56:15;5.30;1.00
5978;DHT22;3015;51.390;12.256;2023-03-14T15:58:41;5.20;1.00
5978;DHT22;3015;51.390;12.256;2023-03-14T16:01:12;5.10;99.90
5978;DHT22;3015;51.390;12.256;2023-03-14T16:03:37;5.10;99.90
5978;DHT22;3015;51.390;12.256;2023-03-14T16:06:04;5.20;1.00
5978;DHT22;3015;51.390;12.256;2023-03-14T16:08:29;5.00;1.00
5978;DHT22;3015;51.390;12.256;2023-03-14T16:10:57;5.00;99.90
5978;DHT22;3015;51.390;12.256;2023-03-14T16:13:23;4.80;1.00
5978;DHT22;3015;51.390;12.256;2023-03-14T16:15:56;4.80;94.20
5978;DHT22;3015;51.390;12.256;2023-03-14T16:18:23;4.70;99.90
5978;DHT22;3015;51.390;12.256;2023-03-14T16:20:57;4.70;1.00
5978;DHT22;3015;51.390;12.256;2023-03-14T16:23:24;4.60;99.90
5978;DHT22;3015;51.390;12.256;2023-03-14T16:25:50;4.50;1.00
5978;DHT22;3015;51.390;12.256;2023-03-14T16:28:16;4.40;1.00
5978;DHT22;3015;51.390;12.256;2023-03-14T16:30:41;4.40;99.90
5978;DHT22;3015;51.390;12.256;2023-03-14T16:33:07;4.40;99.90
5978;DHT22;3015;51.390;12.256;2023-03-14T16:35:40;4.30;99.90
5978;DHT22;3015;51.390;12.256;2023-03-14T16:38:06;4.20;99.90
5978;DHT22;3015;51.390;12.256;2023-03-14T16:40:31;4.10;99.90
5978;DHT22;3015;51.390;12.256;2023-03-14T16:42:57;4.00;99.90
5978;DHT22;3015;51.390;12.256;2023-03-14T16:45:23;4.00;99.90
5978;DHT22;3015;51.390;12.256;2023-03-14T16:47:48;3.90;99.90
5978;DHT22;3015;51.390;12.256;2023-03-14T16:50:14;3.90;1.00
5978;DHT22;3015;51.390;12.256;2023-03-14T16:52:40;3.70;99.90
5978;DHT22;3015;51.390;12.256;2023-03-14T16:55:06;3.60;99.90
5978;DHT22;3015;51.390;12.256;2023-03-14T16:57:32;3.60;1.00
5978;DHT22;3015;51.390;12.256;2023-03-14T16:59:58;3.60;91.90
5978;DHT22;3015;51.390;12.256;2023-03-14T17:02:23;3.50;99.90
5978;DHT22;3015;51.390;12.256;2023-03-14T17:04:49;3.60;99.90
5978;DHT22;3015;51.390;12.256;2023-03-14T17:07:15;3.60;99.90